Time;durP1;ratioP1;P1;durP2;ratioP2;P2;SDS_P1;SDS_P2;PMS_P1;PMS_P2;Temp;Humidity;BMP_temperature;BMP_pressure;BME280_temperature;BME280_humidity;BME280_pressure;Samples;Min_cycle;Max_cycle;Signal;HPM_P1;HPM_P2
2022/06/09 00:01:02;;;;;;;14.63;10.07;;;;;;;19.41;66.76;100397.63;5072361;28;20410;-51
2022/06/09 00:03:34;;;;;;;14.90;10.40;;;;;;;19.39;66.78;100397.72;5072309;28;20453;-51
2022/06/09 00:06:01;;;;;;;17.73;11.98;;;;;;;19.38;66.84;100403.91;5072113;28;20115;-54
2022/06/09 00:08:31;;;;;;;15.63;11.70;;;;;;;19.40;66.76;100396.78;5072629;28;20060;-54
2022/06/09 00:11:01;;;;;;;12.80;9.63;;;;;;;19.38;66.28;100403.91;5072548;28;20543;-52
2022/06/09 00:13:29;;;;;;;13.70;9.90;;;;;;;19.35;66.13;100409.31;5072350;28;20442;-52
2022/06/09 00:15:56;;;;;;;16.38;10.65;;;;;;;19.32;65.83;100409.47;5072096;28;20106;-51
2022/06/09 00:18:25;;;;;;;12.45;10.02;;;;;;;19.28;66.01;100404.44;5072746;28;20126;-51
2022/06/09 00:20:52;;;;;;;13.75;10.07;;;;;;;19.25;65.80;100402.81;5072184;28;20067;-51
2022/06/09 00:23:19;;;;;;;13.50;11.25;;;;;;;19.21;65.64;100401.22;5072433;28;20143;-52
2022/06/09 00:25:46;;;;;;;13.48;9.95;;;;;;;19.19;65.68;100403.09;5072226;28;20044;-51
2022/06/09 00:28:13;;;;;;;12.13;9.80;;;;;;;19.17;65.71;100400.53;5072030;28;20065;-50
2022/06/09 00:30:40;;;;;;;15.65;10.48;;;;;;;19.16;65.84;100400.59;5059759;28;20085;-51
2022/06/09 00:33:07;;;;;;;12.32;9.90;;;;;;;19.12;65.51;100396.44;5051652;28;20182;-52
2022/06/09 00:35:36;;;;;;;13.20;9.63;;;;;;;19.07;65.38;100398.44;5061303;28;20053;-54
2022/06/09 00:38:22;;;;;;;17.65;12.35;;;;;;;19.01;65.34;100404.00;5075723;28;20056;-51
2022/06/09 00:40:48;;;;;;;14.13;9.88;;;;;;;18.95;65.88;100404.28;5075584;28;20400;-53
2022/06/09 00:43:15;;;;;;;18.90;10.48;;;;;;;18.94;65.94;100397.34;5070993;28;20053;-54
2022/06/09 00:45:47;;;;;;;14.02;11.68;;;;;;;18.92;66.14;100408.75;5073176;28;20117;-51
2022/06/09 00:48:26;;;;;;;15.73;11.27;;;;;;;18.90;66.29;100405.34;5075292;28;20459;-53
2022/06/09 00:51:01;;;;;;;17.13;12.32;;;;;;;18.86;66.18;100401.19;5057091;28;20106;-53
2022/06/09 00:53:32;;;;;;;16.23;12.25;;;;;;;18.83;66.04;100398.69;5054800;28;20140;-52
2022/06/09 00:56:02;;;;;;;13.52;10.10;;;;;;;18.80;66.00;100396.22;5055476;28;20194;-54
2022/06/09 00:58:33;;;;;;;15.48;11.20;;;;;;;18.76;65.99;100399.91;5055109;28;20052;-52
2022/06/09 01:01:03;;;;;;;16.85;11.65;;;;;;;18.72;65.82;100390.44;5055058;28;20106;-52
2022/06/09 01:03:34;;;;;;;12.65;9.80;;;;;;;18.70;65.98;100392.31;5055142;28;20049;-52
2022/06/09 01:06:07;;;;;;;15.15;11.95;;;;;;;18.68;66.15;100396.78;5055068;28;20049;-52
2022/06/09 01:08:40;;;;;;;14.73;11.93;;;;;;;18.66;66.44;100396.00;5055137;28;20057;-51
2022/06/09 01:11:07;;;;;;;16.58;11.63;;;;;;;18.65;66.57;100396.91;5060048;28;20052;-51
2022/06/09 01:13:34;;;;;;;15.25;11.98;;;;;;;18.66;66.59;100398.63;5075385;28;20066;-51
2022/06/09 01:16:07;;;;;;;13.85;11.23;;;;;;;18.65;66.55;100406.56;5074985;28;20052;-51
2022/06/09 01:18:46;;;;;;;18.08;13.35;;;;;;;18.62;66.68;100402.31;5075314;28;20143;-52
2022/06/09 01:21:30;;;;;;;18.17;12.80;;;;;;;18.59;66.89;100402.44;5073930;28;20056;-53
2022/06/09 01:24:23;;;;;;;19.17;13.32;;;;;;;18.58;66.80;100395.47;5074805;28;20060;-50
2022/06/09 01:27:12;;;;;;;13.57;10.82;;;;;;;18.58;66.53;100396.31;5075134;28;20059;-52
2022/06/09 01:29:47;;;;;;;21.15;16.33;;;;;;;18.55;66.99;100391.22;5071222;28;20102;-54
2022/06/09 01:32:22;;;;;;;17.83;12.88;;;;;;;18.54;67.19;100388.66;5055044;28;20068;-52
2022/06/09 01:35:01;;;;;;;15.23;12.88;;;;;;;18.52;67.24;100391.38;5054813;28;20699;-54
2022/06/09 01:37:32;;;;;;;16.33;12.02;;;;;;;18.51;67.07;100388.81;5054323;28;20420;-55
2022/06/09 01:40:01;;;;;;;14.93;11.38;;;;;;;18.47;66.89;100398.59;5054356;28;20091;-51
2022/06/09 01:42:31;;;;;;;19.08;12.80;;;;;;;18.46;66.48;100398.69;5054848;28;20057;-51
2022/06/09 01:45:02;;;;;;;18.08;13.05;;;;;;;18.42;66.63;100397.13;5060983;28;20109;-51
2022/06/09 01:47:40;;;;;;;14.13;10.75;;;;;;;18.39;66.40;100399.88;5074160;28;20052;-51
2022/06/09 01:50:10;;;;;;;16.50;11.65;;;;;;;18.35;66.17;100398.31;5059020;28;20122;-51
2022/06/09 01:52:41;;;;;;;15.77;12.73;;;;;;;18.29;66.35;100405.56;5053685;28;20045;-51
2022/06/09 01:55:13;;;;;;;15.20;12.32;;;;;;;18.24;66.58;100412.78;5053369;28;20431;-51
2022/06/09 01:57:43;;;;;;;14.80;10.75;;;;;;;18.21;66.50;100409.44;5053632;28;20106;-51
2022/06/09 02:00:12;;;;;;;16.35;12.55;;;;;;;18.19;66.80;100404.22;5053959;28;20061;-51
2022/06/09 02:02:45;;;;;;;18.10;13.38;;;;;;;18.18;67.11;100401.69;5067437;28;20048;-51
2022/06/09 02:05:17;;;;;;;20.05;14.52;;;;;;;18.20;67.34;100400.69;5074206;28;20082;-51
2022/06/09 02:07:47;;;;;;;17.52;12.60;;;;;;;18.18;67.47;100392.03;5073853;28;20067;-50
2022/06/09 02:10:18;;;;;;;18.33;12.95;;;;;;;18.15;67.79;100397.44;5073968;28;20057;-51
2022/06/09 02:12:45;;;;;;;14.63;11.68;;;;;;;18.12;68.00;100397.56;5074263;28;20101;-51
2022/06/09 02:15:23;;;;;;;19.60;13.43;;;;;;;18.13;67.85;100391.41;5063987;28;20060;-51
2022/06/09 02:17:52;;;;;;;15.98;11.63;;;;;;;18.12;67.81;100397.56;5053656;28;20102;-51
2022/06/09 02:20:23;;;;;;;18.10;13.35;;;;;;;18.14;67.51;100394.88;5063981;28;20393;-51
2022/06/09 02:22:49;;;;;;;15.43;12.77;;;;;;;18.11;67.65;100390.63;5073442;28;20427;-53
2022/06/09 02:25:17;;;;;;;14.02;11.18;;;;;;;18.10;67.17;100388.91;5072318;28;20122;-51
2022/06/09 02:27:44;;;;;;;18.08;13.18;;;;;;;18.08;66.82;100388.13;5073659;28;20072;-50
2022/06/09 02:30:12;;;;;;;18.17;13.60;;;;;;;18.04;66.57;100399.69;5073158;28;20434;-51
2022/06/09 02:32:38;;;;;;;22.25;15.18;;;;;;;18.02;66.60;100390.19;5073427;28;20548;-51
2022/06/09 02:35:08;;;;;;;20.33;14.18;;;;;;;18.01;66.70;100399.81;5073604;28;20149;-50
2022/06/09 02:37:37;;;;;;;17.58;12.45;;;;;;;17.97;66.82;100403.50;5073278;28;20052;-51
2022/06/09 02:40:05;;;;;;;22.27;14.35;;;;;;;17.96;67.13;100405.25;5072785;28;20382;-50
2022/06/09 02:42:31;;;;;;;18.42;13.88;;;;;;;17.96;67.43;100401.78;5073316;28;20113;-51
2022/06/09 02:44:58;;;;;;;15.90;12.45;;;;;;;17.96;67.35;100401.78;5073013;28;20044;-51
2022/06/09 02:47:25;;;;;;;17.65;13.38;;;;;;;17.95;67.33;100405.34;5073352;28;20126;-51
2022/06/09 02:49:52;;;;;;;15.05;11.90;;;;;;;17.95;67.18;100400.94;5072599;28;20052;-50
2022/06/09 02:52:20;;;;;;;18.58;13.15;;;;;;;17.95;67.11;100398.31;5072751;28;20415;-50
2022/06/09 02:54:47;;;;;;;17.63;12.15;;;;;;;17.98;67.31;100405.19;5072968;28;20068;-51
2022/06/09 02:57:13;;;;;;;14.73;11.65;;;;;;;17.98;67.09;100397.34;5073059;28;20649;-51
2022/06/09 02:59:40;;;;;;;13.88;10.57;;;;;;;18.00;67.08;100413.84;5072702;28;20056;-50
2022/06/09 03:02:07;;;;;;;17.38;13.07;;;;;;;18.03;67.33;100403.22;5072634;28;20453;-52
2022/06/09 03:04:34;;;;;;;14.27;11.57;;;;;;;18.06;67.54;100413.56;5072477;28;20068;-51
2022/06/09 03:07:01;;;;;;;16.92;13.20;;;;;;;18.09;67.58;100410.81;5072648;28;20132;-51
2022/06/09 03:09:29;;;;;;;15.85;11.75;;;;;;;18.11;67.34;100410.75;5073062;28;20089;-51
2022/06/09 03:11:56;;;;;;;14.48;10.88;;;;;;;18.13;66.96;100417.63;5073116;28;20377;-51
2022/06/09 03:14:23;;;;;;;15.35;11.85;;;;;;;18.15;66.90;100413.16;5072661;28;20363;-51
2022/06/09 03:16:50;;;;;;;15.80;12.48;;;;;;;18.19;66.80;100417.34;5072672;28;20048;-51
2022/06/09 03:19:18;;;;;;;20.77;13.27;;;;;;;18.22;66.76;100412.00;5072593;28;20052;-51
2022/06/09 03:21:45;;;;;;;21.90;13.35;;;;;;;18.29;66.95;100421.28;5069304;28;20084;-51
2022/06/09 03:24:11;;;;;;;17.63;12.60;;;;;;;18.37;66.85;100417.47;5072028;28;20148;-51
2022/06/09 03:26:40;;;;;;;21.58;15.27;;;;;;;18.43;66.78;100404.06;5072710;28;20056;-50
2022/06/09 03:29:06;;;;;;;16.92;12.48;;;;;;;18.51;66.91;100405.41;5072649;28;20068;-50
2022/06/09 03:31:34;;;;;;;17.15;12.07;;;;;;;18.61;66.90;100411.09;5073229;28;20056;-51
2022/06/09 03:34:02;;;;;;;14.23;11.30;;;;;;;18.74;66.71;100409.66;5072525;28;20446;-51
2022/06/09 03:36:29;;;;;;;16.60;12.63;;;;;;;18.88;66.54;100404.59;5072824;28;20063;-50
2022/06/09 03:38:56;;;;;;;19.27;12.10;;;;;;;19.01;66.34;100393.47;5072553;28;20065;-51
2022/06/09 03:41:23;;;;;;;18.35;12.70;;;;;;;19.14;66.19;100402.47;5072457;28;20446;-51
2022/06/09 03:43:51;;;;;;;15.75;11.65;;;;;;;19.29;65.81;100404.38;5069223;28;20083;-51
2022/06/09 03:46:18;;;;;;;18.83;12.07;;;;;;;19.42;65.44;100405.44;5070777;28;20113;-51
2022/06/09 03:48:44;;;;;;;18.63;11.57;;;;;;;19.52;65.29;100411.09;5072566;28;20059;-51
2022/06/09 03:51:12;;;;;;;17.80;12.40;;;;;;;19.63;64.96;100408.78;5072566;28;20408;-50
2022/06/09 03:53:39;;;;;;;15.93;11.43;;;;;;;19.75;64.72;100407.31;5071707;28;20533;-50
2022/06/09 03:56:07;;;;;;;17.30;10.75;;;;;;;19.88;64.75;100413.66;5072254;28;20052;-53
2022/06/09 03:58:34;;;;;;;15.57;11.75;;;;;;;20.03;64.38;100412.88;5072629;28;20056;-51
2022/06/09 04:01:02;;;;;;;14.23;10.93;;;;;;;20.22;64.22;100412.72;5072712;28;20052;-53
2022/06/09 04:03:29;;;;;;;15.13;10.40;;;;;;;20.40;63.95;100413.59;5052615;28;20049;-51
2022/06/09 04:05:56;;;;;;;15.30;10.10;;;;;;;20.60;63.42;100404.59;5052886;28;20111;-52
2022/06/09 04:08:23;;;;;;;13.70;10.68;;;;;;;20.78;62.90;100400.94;5052838;28;20056;-51
2022/06/09 04:10:51;;;;;;;15.55;10.63;;;;;;;20.98;62.33;100403.31;5053822;28;20063;-51
2022/06/09 04:13:18;;;;;;;11.80;9.73;;;;;;;21.21;62.12;100402.00;5071519;28;20044;-54
2022/06/09 04:15:46;;;;;;;13.65;9.48;;;;;;;21.42;61.43;100408.72;5076431;28;20510;-51
2022/06/09 04:18:14;;;;;;;13.65;9.80;;;;;;;21.63;61.00;100411.03;5077094;28;20092;-54
2022/06/09 04:20:41;;;;;;;10.95;9.07;;;;;;;21.83;60.34;100402.75;5076696;28;20057;-51
2022/06/09 04:23:07;;;;;;;13.40;9.43;;;;;;;22.04;60.04;100403.31;5077069;28;20040;-53
2022/06/09 04:25:34;;;;;;;10.50;8.60;;;;;;;22.26;59.25;100400.19;5076679;28;20125;-54
2022/06/09 04:28:02;;;;;;;10.32;8.13;;;;;;;22.49;58.76;100399.63;5076332;28;20057;-51
2022/06/09 04:30:28;;;;;;;10.85;8.60;;;;;;;22.70;58.31;100400.06;5066192;28;20063;-52
2022/06/09 04:32:56;;;;;;;9.20;7.50;;;;;;;22.91;57.70;100403.16;5056890;28;20045;-52
2022/06/09 04:35:24;;;;;;;12.05;8.77;;;;;;;23.09;57.28;100409.88;5063437;28;20052;-50
2022/06/09 04:38:00;;;;;;;9.55;7.07;;;;;;;23.26;56.82;100393.75;5076179;28;20048;-52
2022/06/09 04:40:28;;;;;;;12.50;7.43;;;;;;;23.43;56.39;100410.31;5069596;28;20049;-54
2022/06/09 04:42:56;;;;;;;9.40;7.78;;;;;;;23.52;56.15;100418.47;5055955;28;20045;-52
2022/06/09 04:45:23;;;;;;;8.48;6.68;;;;;;;23.62;55.65;100415.25;5066111;28;20457;-51
2022/06/09 04:47:50;;;;;;;11.25;8.57;;;;;;;23.76;55.20;100412.50;5075898;28;20061;-52
2022/06/09 04:50:18;;;;;;;11.50;8.13;;;;;;;23.90;55.09;100415.91;5076391;28;20053;-55
2022/06/09 04:52:47;;;;;;;14.23;10.48;;;;;;;23.99;54.99;100424.19;5075646;28;20423;-54
2022/06/09 04:55:14;;;;;;;15.63;11.18;;;;;;;24.04;55.20;100422.06;5062898;28;20079;-52
2022/06/09 04:57:42;;;;;;;14.68;10.43;;;;;;;24.15;55.11;100417.72;5073062;28;20060;-51
2022/06/09 05:00:11;;;;;;;19.33;10.77;;;;;;;24.29;54.78;100422.06;5074936;28;20438;-51
2022/06/09 05:02:38;;;;;;;14.98;9.85;;;;;;;24.43;54.13;100424.59;5075066;28;20445;-51
2022/06/09 05:05:06;;;;;;;14.82;10.23;;;;;;;24.50;54.07;100425.88;5075697;28;20113;-52
2022/06/09 05:07:33;;;;;;;15.95;10.77;;;;;;;24.67;53.29;100422.03;5075153;28;20481;-54
2022/06/09 05:10:02;;;;;;;14.18;9.85;;;;;;;24.78;52.90;100435.34;5075642;28;20048;-54
2022/06/09 05:12:28;;;;;;;14.43;10.20;;;;;;;24.86;52.85;100432.97;5075380;28;20059;-53
2022/06/09 05:14:55;;;;;;;12.10;8.55;;;;;;;25.00;52.30;100437.34;5068585;28;20056;-53
2022/06/09 05:17:22;;;;;;;11.45;8.88;;;;;;;25.04;52.14;100436.16;5055037;28;20056;-53
2022/06/09 05:19:49;;;;;;;11.40;8.32;;;;;;;25.06;51.63;100430.72;5055288;28;20084;-51
2022/06/09 05:22:16;;;;;;;15.73;8.52;;;;;;;25.07;51.47;100425.31;5058464;28;20082;-55
2022/06/09 05:24:42;;;;;;;118.85;15.93;;;;;;;25.10;51.61;100430.41;5075024;28;20045;-52
2022/06/09 05:27:14;;;;;;;17.90;9.15;;;;;;;25.10;51.62;100425.09;5074652;28;20449;-54
2022/06/09 05:29:41;;;;;;;17.02;9.15;;;;;;;25.09;51.92;100434.00;5075047;28;20129;-54
2022/06/09 05:32:09;;;;;;;14.98;10.57;;;;;;;25.07;51.79;100435.91;5075108;28;20053;-53
2022/06/09 05:34:36;;;;;;;12.15;8.45;;;;;;;25.02;51.76;100438.06;5075064;28;20364;-55
2022/06/09 05:37:03;;;;;;;10.52;8.73;;;;;;;25.01;51.91;100439.03;5074693;28;20517;-51
2022/06/09 05:45:02;;;;;;;23.58;11.02;;;;;;;25.20;51.98;100445.63;5074617;28;20766;-55
2022/06/09 05:47:28;;;;;;;14.68;10.38;;;;;;;25.16;51.70;100450.31;5054377;28;20599;-55
2022/06/09 05:49:55;;;;;;;12.63;10.00;;;;;;;25.14;51.55;100458.38;5054793;28;20069;-55
2022/06/09 05:52:24;;;;;;;12.00;9.00;;;;;;;25.12;51.96;100448.84;5054236;28;20147;-53
2022/06/09 05:54:52;;;;;;;21.00;10.55;;;;;;;25.09;52.00;100455.22;5054215;28;20048;-51
2022/06/09 05:57:22;;;;;;;20.75;9.10;;;;;;;25.06;52.13;100457.25;5054199;28;20107;-55
2022/06/09 05:59:50;;;;;;;14.68;10.63;;;;;;;25.00;52.19;100461.19;5054264;28;20056;-52
2022/06/09 06:02:18;;;;;;;12.48;10.43;;;;;;;24.98;52.33;100463.13;5061501;28;20052;-53
2022/06/09 06:04:46;;;;;;;22.80;10.95;;;;;;;24.98;52.09;100467.56;5059540;28;20048;-50
2022/06/09 06:07:12;;;;;;;12.98;10.00;;;;;;;24.90;52.31;100465.41;5070240;28;20055;-51
2022/06/09 06:09:39;;;;;;;23.23;10.77;;;;;;;24.85;52.45;100473.69;5066634;28;20477;-51
2022/06/09 06:12:06;;;;;;;14.98;8.98;;;;;;;24.84;52.70;100465.84;5067500;28;20048;-55
2022/06/09 06:14:35;;;;;;;11.95;8.20;;;;;;;24.85;52.75;100457.78;5072143;28;20137;-54
2022/06/09 06:17:01;;;;;;;14.65;9.25;;;;;;;24.83;52.71;100466.81;5070705;28;20142;-51
2022/06/09 06:19:28;;;;;;;10.95;8.90;;;;;;;24.81;52.45;100460.78;5067325;28;20049;-53
2022/06/09 06:21:55;;;;;;;12.68;9.20;;;;;;;24.77;52.64;100468.09;5059574;28;20049;-53
2022/06/09 06:24:24;;;;;;;30.77;9.88;;;;;;;24.76;52.78;100470.88;5077468;28;20045;-52
2022/06/09 06:26:52;;;;;;;11.57;8.18;;;;;;;24.77;52.67;100470.75;5071802;28;20474;-52
2022/06/09 06:29:22;;;;;;;126.50;17.40;;;;;;;24.79;52.97;100473.28;5073944;28;20062;-53
2022/06/09 06:31:51;;;;;;;19.45;9.05;;;;;;;24.80;53.08;100475.00;5073716;28;20049;-51
2022/06/09 06:34:18;;;;;;;11.15;8.75;;;;;;;24.78;52.85;100466.31;5072850;28;20044;-52
2022/06/09 06:36:48;;;;;;;11.95;8.32;;;;;;;24.83;52.87;100474.78;5072609;28;20060;-52
2022/06/09 06:39:15;;;;;;;19.55;7.97;;;;;;;24.84;52.74;100479.13;5075543;28;20061;-54
2022/06/09 06:41:42;;;;;;;11.20;8.10;;;;;;;24.87;52.93;100476.25;5073615;28;20503;-55
2022/06/09 06:44:12;;;;;;;11.50;8.18;;;;;;;24.90;52.90;100473.38;5073745;28;20052;-53
2022/06/09 06:46:41;;;;;;;13.15;9.07;;;;;;;24.95;52.49;100468.56;5074263;28;20409;-51
2022/06/09 06:49:10;;;;;;;10.93;7.50;;;;;;;24.95;52.41;100479.19;5063592;28;20063;-52
2022/06/09 06:51:37;;;;;;;10.07;8.88;;;;;;;25.00;52.00;100477.09;5070246;28;20135;-52
2022/06/09 06:54:06;;;;;;;10.63;8.55;;;;;;;25.02;52.11;100480.50;5072628;28;20136;-52
2022/06/09 06:56:34;;;;;;;8.70;7.43;;;;;;;24.99;52.12;100480.72;5072573;28;20048;-54
2022/06/09 06:59:02;;;;;;;119.07;17.35;;;;;;;24.96;52.26;100472.91;5071952;28;20048;-53
2022/06/09 07:01:30;;;;;;;11.65;9.10;;;;;;;24.94;52.16;100477.50;5072419;28;20109;-54
2022/06/09 07:03:57;;;;;;;14.43;8.70;;;;;;;24.91;52.26;100483.00;5072449;28;20048;-52
2022/06/09 07:06:25;;;;;;;14.73;10.35;;;;;;;24.94;52.25;100482.78;5072670;28;20061;-55
2022/06/09 07:08:56;;;;;;;14.50;9.60;;;;;;;24.95;52.44;100487.13;5072331;28;20057;-53
2022/06/09 07:11:23;;;;;;;19.08;9.68;;;;;;;24.94;52.05;100476.66;5072437;28;20052;-56
2022/06/09 07:13:50;;;;;;;16.23;9.90;;;;;;;24.96;52.13;100480.88;5072176;28;20782;-55
2022/06/09 07:16:19;;;;;;;20.15;9.27;;;;;;;25.01;52.23;100483.25;5072025;28;20052;-51
2022/06/09 07:18:46;;;;;;;15.70;9.07;;;;;;;25.19;51.89;100491.69;5072157;28;20090;-54
2022/06/09 07:21:14;;;;;;;148.95;18.92;;;;;;;25.32;51.53;100481.84;5072024;28;20132;-52
2022/06/09 07:23:42;;;;;;;11.55;8.30;;;;;;;25.43;50.88;100484.56;5058317;28;20053;-52
2022/06/09 07:26:12;;;;;;;11.75;7.50;;;;;;;25.46;50.59;100479.03;5065271;28;20121;-52
2022/06/09 07:28:39;;;;;;;9.90;8.50;;;;;;;25.52;50.56;100481.25;5059314;28;20132;-52
2022/06/09 07:31:07;;;;;;;15.65;8.05;;;;;;;25.53;50.64;100477.63;5069964;28;20404;-55
2022/06/09 07:33:36;;;;;;;11.90;10.52;;;;;;;25.49;50.33;100484.09;5071683;28;20461;-52
2022/06/09 07:36:06;;;;;;;13.80;9.23;;;;;;;25.33;50.16;100478.25;5071761;28;20080;-51
2022/06/09 07:38:33;;;;;;;10.77;8.45;;;;;;;25.29;50.64;100482.06;5072101;28;20056;-52
2022/06/09 07:41:01;;;;;;;9.43;7.85;;;;;;;25.40;50.61;100482.13;5072345;28;20058;-55
2022/06/09 07:43:28;;;;;;;12.25;8.52;;;;;;;25.44;51.07;100487.09;5073107;28;20052;-51
2022/06/09 07:45:55;;;;;;;10.40;9.30;;;;;;;25.50;50.25;100484.97;5059621;28;20048;-53
2022/06/09 07:48:22;;;;;;;65.05;13.82;;;;;;;25.48;50.33;100493.88;5076237;28;20052;-51
2022/06/09 07:50:50;;;;;;;10.23;8.38;;;;;;;25.47;50.61;100501.94;5076206;28;20048;-52
2022/06/09 07:53:18;;;;;;;11.80;9.13;;;;;;;25.50;50.40;100496.44;5069202;28;20060;-52
2022/06/09 07:55:44;;;;;;;12.75;9.38;;;;;;;25.56;50.30;100497.78;5075213;28;20048;-53
2022/06/09 07:58:13;;;;;;;29.27;10.93;;;;;;;25.52;50.15;100499.81;5076362;28;20044;-52
2022/06/09 08:00:41;;;;;;;40.88;9.82;;;;;;;25.51;50.56;100492.81;5075614;28;20044;-53
2022/06/09 08:03:08;;;;;;;10.73;9.63;;;;;;;25.52;51.07;100496.31;5073349;28;20052;-52
2022/06/09 08:05:36;;;;;;;12.13;10.30;;;;;;;25.53;50.75;100495.38;5060159;28;20045;-52
2022/06/09 08:08:03;;;;;;;16.67;9.75;;;;;;;25.51;50.85;100491.97;5069200;28;20048;-55
2022/06/09 08:10:33;;;;;;;13.18;9.52;;;;;;;25.52;51.15;100489.22;5061530;28;20628;-54
2022/06/09 08:13:04;;;;;;;10.43;8.07;;;;;;;25.48;50.90;100498.31;5056431;28;20136;-53
2022/06/09 08:15:34;;;;;;;11.80;9.50;;;;;;;25.46;51.05;100501.09;5065355;28;20049;-51
2022/06/09 08:18:01;;;;;;;9.38;8.35;;;;;;;25.41;51.26;100497.09;5075193;28;20433;-51
2022/06/09 08:20:31;;;;;;;18.83;9.43;;;;;;;25.40;51.22;100500.69;5075186;28;20057;-51
2022/06/09 08:23:02;;;;;;;11.30;8.68;;;;;;;25.37;51.48;100506.25;5069469;28;20114;-51
2022/06/09 08:25:30;;;;;;;9.10;7.35;;;;;;;25.30;51.76;100499.69;5074469;28;20063;-52
2022/06/09 08:27:57;;;;;;;24.80;9.60;;;;;;;25.29;51.91;100508.59;5074134;28;20689;-51
2022/06/09 08:30:25;;;;;;;71.47;13.85;;;;;;;25.22;51.91;100510.88;5072451;28;20048;-53
2022/06/09 08:32:54;;;;;;;17.17;10.15;;;;;;;25.16;52.07;100513.97;5074557;28;20132;-53
2022/06/09 08:35:21;;;;;;;9.85;8.60;;;;;;;25.08;52.08;100509.22;5076203;28;20136;-54
2022/06/09 08:37:51;;;;;;;11.55;9.35;;;;;;;25.00;52.13;100503.63;5075797;28;20090;-52
2022/06/09 08:40:22;;;;;;;11.02;9.70;;;;;;;24.93;52.40;100502.31;5076018;28;20163;-50
2022/06/09 08:43:02;;;;;;;28.33;9.07;;;;;;;24.85;52.85;100509.97;5075138;28;20484;-52
2022/06/09 08:45:34;;;;;;;69.18;13.75;;;;;;;24.80;53.02;100512.09;5075358;28;20057;-51
2022/06/09 08:48:04;;;;;;;16.73;9.88;;;;;;;24.77;53.39;100512.31;5074904;28;20048;-51
2022/06/09 08:50:34;;;;;;;13.45;9.50;;;;;;;24.73;53.39;100516.16;5075855;28;20044;-50
2022/06/09 08:53:08;;;;;;;11.68;8.98;;;;;;;24.68;53.52;100511.16;5075030;28;20056;-52
2022/06/09 08:55:39;;;;;;;11.90;10.07;;;;;;;24.64;53.67;100512.34;5074959;28;20048;-51
2022/06/09 08:58:16;;;;;;;138.45;19.70;;;;;;;24.67;53.93;100511.28;5074523;28;20059;-53
2022/06/09 09:00:46;;;;;;;13.18;10.70;;;;;;;24.72;53.78;100525.91;5075041;28;20118;-51
2022/06/09 09:03:20;;;;;;;12.95;9.63;;;;;;;24.83;53.49;100522.47;5070639;28;20412;-55
2022/06/09 09:05:53;;;;;;;12.20;9.93;;;;;;;24.93;53.69;100523.53;5071952;28;20159;-51
2022/06/09 09:08:20;;;;;;;15.82;9.13;;;;;;;25.04;53.26;100521.00;5064111;28;20151;-50
2022/06/09 09:11:02;;;;;;;11.63;8.23;;;;;;;25.21;53.06;100510.97;5074286;28;20075;-53
2022/06/09 09:13:39;;;;;;;11.05;7.93;;;;;;;25.41;52.36;100513.00;5072805;28;20637;-52
2022/06/09 09:16:13;;;;;;;12.38;8.65;;;;;;;25.54;51.89;100508.50;5070369;28;20068;-51
2022/06/09 09:18:49;;;;;;;250.33;25.57;;;;;;;25.61;51.76;100499.13;5068705;28;20090;-52
2022/06/09 09:21:47;;;;;;;34.50;8.85;;;;;;;25.79;51.47;100507.56;5069878;28;20770;-52
2022/06/09 09:24:24;;;;;;;10.55;7.45;;;;;;;25.87;51.32;100502.50;5072859;28;20041;-52
2022/06/09 09:27:04;;;;;;;10.77;7.28;;;;;;;25.99;50.73;100514.00;5077187;28;20056;-51
2022/06/09 09:29:43;;;;;;;17.17;6.90;;;;;;;26.03;50.52;100505.72;5074534;28;20114;-51
2022/06/09 09:32:14;;;;;;;14.80;7.80;;;;;;;26.15;50.16;100513.69;5075098;28;20055;-51
2022/06/09 09:34:45;;;;;;;11.73;6.57;;;;;;;26.17;49.72;100507.31;5073004;28;20044;-52
2022/06/09 09:37:20;;;;;;;8.13;6.18;;;;;;;26.24;49.85;100503.22;5070376;28;20052;-50
2022/06/09 09:39:51;;;;;;;8.13;6.72;;;;;;;26.26;49.58;100505.75;5071805;28;20154;-49
2022/06/09 09:42:21;;;;;;;6.25;5.10;;;;;;;26.35;49.41;100505.91;5067861;28;20041;-48
2022/06/09 09:45:18;;;;;;;13.35;7.57;;;;;;;26.42;49.55;100515.09;5073854;28;20056;-49
2022/06/09 09:47:51;;;;;;;26.98;7.93;;;;;;;26.38;49.65;100510.97;5072866;28;20139;-53
2022/06/09 09:50:31;;;;;;;8.55;7.65;;;;;;;26.30;49.64;100510.69;5073519;28;20049;-54
2022/06/09 09:53:03;;;;;;;8.23;6.38;;;;;;;26.26;50.11;100513.72;5073700;28;20678;-51
2022/06/09 09:55:37;;;;;;;95.70;13.32;;;;;;;26.30;50.23;100508.03;5073729;28;20424;-52
2022/06/09 09:58:38;;;;;;;20.58;6.43;;;;;;;26.33;50.20;100512.31;5073813;28;20053;-53
2022/06/09 10:01:27;;;;;;;8.65;6.47;;;;;;;26.26;50.43;100511.91;5073680;28;20144;-53
2022/06/09 10:09:51;;;;;;;6.28;5.68;;;;;;;25.80;51.05;100503.94;4975208;28;20062;-53
2022/06/09 10:12:27;;;;;;;16.38;5.90;;;;;;;25.68;51.11;100515.47;5048095;28;20052;-51
2022/06/09 10:14:56;;;;;;;11.05;6.72;;;;;;;25.61;51.73;100512.41;5066730;28;20044;-49
2022/06/09 10:17:33;;;;;;;72.32;9.82;;;;;;;25.55;52.54;100507.56;5061347;28;20041;-51
2022/06/09 10:20:10;;;;;;;9.20;6.93;;;;;;;25.54;52.55;100513.81;5073564;28;20048;-54
2022/06/09 10:22:39;;;;;;;10.77;6.50;;;;;;;25.52;52.56;100509.59;5073975;28;20059;-50
2022/06/09 10:25:21;;;;;;;10.77;7.00;;;;;;;25.45;52.54;100509.16;5073205;28;20052;-50
2022/06/09 10:27:54;;;;;;;8.73;7.25;;;;;;;25.42;52.83;100509.41;5063051;28;20067;-52
2022/06/09 10:30:28;;;;;;;14.52;6.97;;;;;;;25.33;53.32;100510.06;5071134;28;20110;-51
2022/06/09 10:33:01;;;;;;;9.82;7.25;;;;;;;25.25;53.47;100504.50;5065337;28;20102;-50
2022/06/09 10:35:35;;;;;;;12.95;6.60;;;;;;;25.20;54.03;100511.94;5066869;28;20388;-50
2022/06/09 10:38:13;;;;;;;10.70;6.60;;;;;;;25.19;54.42;100508.44;5070989;28;20051;-52
2022/06/09 10:40:46;;;;;;;15.52;6.68;;;;;;;25.19;54.55;100512.91;5072845;28;20122;-49
2022/06/09 10:43:22;;;;;;;8.77;6.68;;;;;;;25.17;55.00;100508.56;5075314;28;20060;-49
2022/06/09 10:45:54;;;;;;;9.75;7.38;;;;;;;25.16;55.53;100509.50;5076664;28;20362;-51
2022/06/09 10:57:11;;;;;;;10.52;8.88;;;;;;;25.01;56.76;100520.38;5072466;28;20109;-52
2022/06/09 10:59:47;;;;;;;9.10;7.68;;;;;;;25.00;57.30;100516.88;5072334;28;20491;-51
2022/06/09 11:02:19;;;;;;;10.32;8.32;;;;;;;24.98;57.24;100521.44;5068598;28;20397;-51
2022/06/09 11:04:47;;;;;;;13.50;9.27;;;;;;;24.95;57.06;100515.47;5072304;28;20388;-51
2022/06/09 11:07:43;;;;;;;11.07;7.63;;;;;;;24.93;57.88;100512.91;5071131;28;20056;-51
2022/06/09 11:10:22;;;;;;;8.23;7.20;;;;;;;24.93;58.03;100518.22;5057881;28;20238;-51
2022/06/09 11:13:03;;;;;;;9.25;7.68;;;;;;;24.95;57.59;100518.97;5069092;28;20052;-53
2022/06/09 11:16:00;;;;;;;9.18;7.97;;;;;;;24.95;57.79;100516.31;5068777;28;20052;-50
2022/06/09 11:18:51;;;;;;;8.82;7.65;;;;;;;24.99;57.16;100522.28;5072255;28;20048;-50
2022/06/09 11:21:26;;;;;;;9.38;8.23;;;;;;;25.02;57.11;100527.38;5064698;28;20473;-50
2022/06/09 11:24:06;;;;;;;9.07;8.18;;;;;;;25.01;56.75;100526.53;5060662;28;20041;-49
2022/06/09 11:26:42;;;;;;;11.60;9.63;;;;;;;25.04;57.12;100521.00;5062393;28;20044;-50
2022/06/09 11:29:27;;;;;;;13.30;10.80;;;;;;;24.98;57.38;100521.44;5071837;28;20517;-49
2022/06/09 11:32:07;;;;;;;13.32;9.52;;;;;;;24.81;57.95;100519.09;5055963;28;20052;-49
2022/06/09 11:34:54;;;;;;;14.98;11.20;;;;;;;24.72;58.77;100522.41;5072557;28;20453;-52
2022/06/09 11:37:38;;;;;;;16.27;10.88;;;;;;;24.68;58.86;100518.28;5072033;28;20545;-48
2022/06/09 11:40:21;;;;;;;22.27;10.20;;;;;;;24.60;59.17;100516.16;5072611;28;20044;-48
2022/06/09 11:43:05;;;;;;;15.13;10.93;;;;;;;24.64;59.21;100516.78;5073213;28;20139;-51
2022/06/09 11:45:37;;;;;;;13.43;11.02;;;;;;;24.65;58.96;100523.78;5072311;28;20080;-51
2022/06/09 11:48:08;;;;;;;14.75;11.82;;;;;;;24.65;58.71;100523.78;5071973;28;20055;-51
2022/06/09 11:50:40;;;;;;;15.90;13.57;;;;;;;24.57;58.76;100520.84;5071759;28;20064;-51